sensor_id;sensor_type;location;lat;lon;timestamp;pressure;altitude;pressure_sealevel;temperature;humidity
59329;BME280;45100;46.926;7.452;2023-04-10T00:01:23;95692.74;;;5.88;77.21
59329;BME280;45100;46.926;7.452;2023-04-10T00:03:54;95697.43;;;5.82;77.41
59329;BME280;45100;46.926;7.452;2023-04-10T00:06:25;95699.36;;;5.77;77.68
59329;BME280;45100;46.926;7.452;2023-04-10T00:08:55;95698.58;;;5.73;77.88
59329;BME280;45100;46.926;7.452;2023-04-10T00:11:26;95699.50;;;5.69;77.84
59329;BME280;45100;46.926;7.452;2023-04-10T00:13:57;95692.11;;;5.62;78.19
59329;BME280;45100;46.926;7.452;2023-04-10T00:16:27;95691.81;;;5.59;78.87
59329;BME280;45100;46.926;7.452;2023-04-10T00:18:58;95685.40;;;5.59;79.24
59329;BME280;45100;46.926;7.452;2023-04-10T00:21:29;95682.95;;;5.59;79.17
59329;BME280;45100;46.926;7.452;2023-04-10T00:24:00;95681.59;;;5.58;79.33
59329;BME280;45100;46.926;7.452;2023-04-10T00:26:30;95679.08;;;5.57;79.69
59329;BME280;45100;46.926;7.452;2023-04-10T00:29:01;95677.30;;;5.55;79.60
59329;BME280;45100;46.926;7.452;2023-04-10T00:31:32;95678.55;;;5.54;79.60
59329;BME280;45100;46.926;7.452;2023-04-10T00:34:03;95674.71;;;5.53;79.87
59329;BME280;45100;46.926;7.452;2023-04-10T00:36:34;95677.55;;;5.53;79.95
59329;BME280;45100;46.926;7.452;2023-04-10T00:39:04;95673.31;;;5.52;79.88
59329;BME280;45100;46.926;7.452;2023-04-10T00:41:34;95674.34;;;5.51;79.96
59329;BME280;45100;46.926;7.452;2023-04-10T00:44:05;95673.47;;;5.50;79.90
59329;BME280;45100;46.926;7.452;2023-04-10T00:46:37;95674.09;;;5.49;79.75
59329;BME280;45100;46.926;7.452;2023-04-10T00:49:07;95676.52;;;5.45;79.52
59329;BME280;45100;46.926;7.452;2023-04-10T00:51:36;95674.71;;;5.42;79.75
59329;BME280;45100;46.926;7.452;2023-04-10T00:54:10;95673.58;;;5.40;79.97
59329;BME280;45100;46.926;7.452;2023-04-10T00:56:38;95671.28;;;5.37;79.93
59329;BME280;45100;46.926;7.452;2023-04-10T00:59:08;95671.20;;;5.34;79.85
59329;BME280;45100;46.926;7.452;2023-04-10T01:01:39;95674.45;;;5.28;79.82
59329;BME280;45100;46.926;7.452;2023-04-10T01:04:10;95672.80;;;5.20;80.23
59329;BME280;45100;46.926;7.452;2023-04-10T01:07:03;95670.48;;;5.13;80.87
59329;BME280;45100;46.926;7.452;2023-04-10T01:11:56;95667.59;;;5.04;81.32
59329;BME280;45100;46.926;7.452;2023-04-10T01:14:18;95675.42;;;5.01;81.42
59329;BME280;45100;46.926;7.452;2023-04-10T01:16:46;95674.48;;;4.98;81.49
59329;BME280;45100;46.926;7.452;2023-04-10T01:19:24;95676.35;;;4.95;81.70
59329;BME280;45100;46.926;7.452;2023-04-10T01:21:43;95676.80;;;4.91;81.85
59329;BME280;45100;46.926;7.452;2023-04-10T01:24:38;95676.39;;;4.87;81.92
59329;BME280;45100;46.926;7.452;2023-04-10T01:27:09;95671.10;;;4.84;82.32
59329;BME280;45100;46.926;7.452;2023-04-10T01:29:16;95671.62;;;4.83;82.60
59329;BME280;45100;46.926;7.452;2023-04-10T01:31:53;95676.81;;;4.83;82.57
59329;BME280;45100;46.926;7.452;2023-04-10T01:34:18;95676.36;;;4.82;82.49
59329;BME280;45100;46.926;7.452;2023-04-10T01:36:49;95684.61;;;4.82;82.43
59329;BME280;45100;46.926;7.452;2023-04-10T01:39:20;95686.01;;;4.81;82.59
59329;BME280;45100;46.926;7.452;2023-04-10T01:44:26;95693.81;;;4.82;82.29
59329;BME280;45100;46.926;7.452;2023-04-10T01:46:51;95691.96;;;4.80;82.27
59329;BME280;45100;46.926;7.452;2023-04-10T01:49:20;95688.97;;;4.76;82.24
59329;BME280;45100;46.926;7.452;2023-04-10T01:51:51;95682.33;;;4.71;82.61
59329;BME280;45100;46.926;7.452;2023-04-10T01:54:22;95680.83;;;4.65;83.19
59329;BME280;45100;46.926;7.452;2023-04-10T01:56:52;95682.42;;;4.63;83.54
59329;BME280;45100;46.926;7.452;2023-04-10T01:59:23;95680.75;;;4.62;83.72
59329;BME280;45100;46.926;7.452;2023-04-10T02:01:55;95684.45;;;4.62;83.76
59329;BME280;45100;46.926;7.452;2023-04-10T02:04:26;95682.45;;;4.62;84.06
59329;BME280;45100;46.926;7.452;2023-04-10T02:07:19;95684.08;;;4.63;84.40
59329;BME280;45100;46.926;7.452;2023-04-10T02:12:04;95691.59;;;4.64;84.31
59329;BME280;45100;46.926;7.452;2023-04-10T02:14:30;95694.38;;;4.64;84.48
59329;BME280;45100;46.926;7.452;2023-04-10T02:16:58;95693.66;;;4.64;84.85
59329;BME280;45100;46.926;7.452;2023-04-10T02:19:29;95694.45;;;4.64;84.90
59329;BME280;45100;46.926;7.452;2023-04-10T02:21:58;95695.70;;;4.65;84.79
59329;BME280;45100;46.926;7.452;2023-04-10T02:24:28;95698.48;;;4.66;84.78
59329;BME280;45100;46.926;7.452;2023-04-10T02:26:59;95699.00;;;4.65;84.54
59329;BME280;45100;46.926;7.452;2023-04-10T02:29:30;95700.34;;;4.63;84.32
59329;BME280;45100;46.926;7.452;2023-04-10T02:32:00;95698.25;;;4.61;84.30
59329;BME280;45100;46.926;7.452;2023-04-10T02:34:30;95693.34;;;4.59;84.39
59329;BME280;45100;46.926;7.452;2023-04-10T02:37:01;95698.59;;;4.57;84.86
59329;BME280;45100;46.926;7.452;2023-04-10T02:39:32;95696.05;;;4.56;84.88
59329;BME280;45100;46.926;7.452;2023-04-10T02:42:03;95694.12;;;4.54;84.48
59329;BME280;45100;46.926;7.452;2023-04-10T02:44:33;95697.69;;;4.48;84.32
59329;BME280;45100;46.926;7.452;2023-04-10T02:47:04;95699.16;;;4.41;85.00
59329;BME280;45100;46.926;7.452;2023-04-10T02:49:34;95703.97;;;4.38;85.43
59329;BME280;45100;46.926;7.452;2023-04-10T02:52:06;95697.27;;;4.35;85.19
59329;BME280;45100;46.926;7.452;2023-04-10T02:54:37;95694.73;;;4.29;85.38
59329;BME280;45100;46.926;7.452;2023-04-10T02:57:06;95697.23;;;4.25;85.97
59329;BME280;45100;46.926;7.452;2023-04-10T02:59:37;95691.38;;;4.23;86.20
59329;BME280;45100;46.926;7.452;2023-04-10T03:02:08;95693.24;;;4.22;86.04
59329;BME280;45100;46.926;7.452;2023-04-10T03:04:39;95689.41;;;4.22;85.96
59329;BME280;45100;46.926;7.452;2023-04-10T03:07:09;95691.55;;;4.21;85.81
59329;BME280;45100;46.926;7.452;2023-04-10T03:09:40;95687.55;;;4.20;85.74
59329;BME280;45100;46.926;7.452;2023-04-10T03:12:11;95687.84;;;4.18;85.74
59329;BME280;45100;46.926;7.452;2023-04-10T03:14:41;95683.58;;;4.16;85.50
59329;BME280;45100;46.926;7.452;2023-04-10T03:17:13;95676.76;;;4.12;85.39
59329;BME280;45100;46.926;7.452;2023-04-10T03:19:42;95671.46;;;4.10;85.59
59329;BME280;45100;46.926;7.452;2023-04-10T03:22:13;95665.34;;;4.06;85.37
59329;BME280;45100;46.926;7.452;2023-04-10T03:24:44;95661.12;;;4.00;85.29
59329;BME280;45100;46.926;7.452;2023-04-10T03:27:16;95656.95;;;3.92;85.64
59329;BME280;45100;46.926;7.452;2023-04-10T03:29:46;95666.21;;;3.83;86.01
59329;BME280;45100;46.926;7.452;2023-04-10T03:32:15;95664.95;;;3.74;86.35
59329;BME280;45100;46.926;7.452;2023-04-10T03:34:46;95664.31;;;3.65;86.73
59329;BME280;45100;46.926;7.452;2023-04-10T03:37:19;95660.11;;;3.56;87.31
59329;BME280;45100;46.926;7.452;2023-04-10T03:39:48;95656.26;;;3.47;87.86
59329;BME280;45100;46.926;7.452;2023-04-10T03:42:18;95652.30;;;3.40;88.20
59329;BME280;45100;46.926;7.452;2023-04-10T03:44:49;95652.98;;;3.32;88.37
59329;BME280;45100;46.926;7.452;2023-04-10T03:47:20;95653.31;;;3.27;89.04
59329;BME280;45100;46.926;7.452;2023-04-10T03:49:51;95658.66;;;3.26;89.96
59329;BME280;45100;46.926;7.452;2023-04-10T03:52:22;95662.12;;;3.28;90.24
59329;BME280;45100;46.926;7.452;2023-04-10T03:54:51;95660.61;;;3.31;90.23
59329;BME280;45100;46.926;7.452;2023-04-10T03:57:22;95662.34;;;3.32;89.69
59329;BME280;45100;46.926;7.452;2023-04-10T03:59:53;95663.41;;;3.31;89.62
59329;BME280;45100;46.926;7.452;2023-04-10T04:02:24;95669.05;;;3.32;90.13
59329;BME280;45100;46.926;7.452;2023-04-10T04:04:55;95667.34;;;3.33;90.22
59329;BME280;45100;46.926;7.452;2023-04-10T04:07:25;95664.79;;;3.33;89.92
59329;BME280;45100;46.926;7.452;2023-04-10T04:09:56;95664.20;;;3.31;89.59
59329;BME280;45100;46.926;7.452;2023-04-10T04:12:27;95669.34;;;3.30;89.78
59329;BME280;45100;46.926;7.452;2023-04-10T04:14:57;95676.55;;;3.30;89.82
59329;BME280;45100;46.926;7.452;2023-04-10T04:17:28;95674.74;;;3.28;89.96
59329;BME280;45100;46.926;7.452;2023-04-10T04:19:59;95672.34;;;3.28;89.97
59329;BME280;45100;46.926;7.452;2023-04-10T04:22:29;95675.38;;;3.28;90.00
59329;BME280;45100;46.926;7.452;2023-04-10T04:25:00;95672.12;;;3.28;90.01
59329;BME280;45100;46.926;7.452;2023-04-10T04:27:31;95675.88;;;3.28;90.05
59329;BME280;45100;46.926;7.452;2023-04-10T04:30:02;95680.72;;;3.28;90.09
59329;BME280;45100;46.926;7.452;2023-04-10T04:32:32;95686.45;;;3.29;90.10
59329;BME280;45100;46.926;7.452;2023-04-10T04:35:03;95693.00;;;3.29;90.02
59329;BME280;45100;46.926;7.452;2023-04-10T04:37:33;95688.30;;;3.29;90.21
59329;BME280;45100;46.926;7.452;2023-04-10T04:40:05;95688.70;;;3.32;91.01
59329;BME280;45100;46.926;7.452;2023-04-10T04:42:35;95686.61;;;3.36;90.99
59329;BME280;45100;46.926;7.452;2023-04-10T04:45:07;95689.36;;;3.40;90.87
59329;BME280;45100;46.926;7.452;2023-04-10T04:47:37;95685.48;;;3.42;90.49
59329;BME280;45100;46.926;7.452;2023-04-10T04:50:08;95688.73;;;3.43;90.42
59329;BME280;45100;46.926;7.452;2023-04-10T04:52:38;95691.78;;;3.45;90.31
59329;BME280;45100;46.926;7.452;2023-04-10T04:55:09;95693.00;;;3.45;90.05
59329;BME280;45100;46.926;7.452;2023-04-10T04:57:40;95690.43;;;3.46;90.13
59329;BME280;45100;46.926;7.452;2023-04-10T05:00:11;95689.72;;;3.48;90.00
59329;BME280;45100;46.926;7.452;2023-04-10T05:02:41;95690.09;;;3.49;89.86
59329;BME280;45100;46.926;7.452;2023-04-10T05:05:12;95689.92;;;3.49;89.95
59329;BME280;45100;46.926;7.452;2023-04-10T05:07:42;95689.97;;;3.51;90.15
59329;BME280;45100;46.926;7.452;2023-04-10T05:10:13;95693.14;;;3.54;90.16
59329;BME280;45100;46.926;7.452;2023-04-10T05:12:43;95694.99;;;3.56;90.21
59329;BME280;45100;46.926;7.452;2023-04-10T05:15:14;95696.27;;;3.60;90.34
59329;BME280;45100;46.926;7.452;2023-04-10T05:17:45;95691.64;;;3.63;90.37
59329;BME280;45100;46.926;7.452;2023-04-10T05:20:16;95691.09;;;3.68;90.39
59329;BME280;45100;46.926;7.452;2023-04-10T05:22:47;95691.94;;;3.73;90.15
59329;BME280;45100;46.926;7.452;2023-04-10T05:25:18;95691.84;;;3.79;89.99
59329;BME280;45100;46.926;7.452;2023-04-10T05:27:49;95692.36;;;3.86;89.68
59329;BME280;45100;46.926;7.452;2023-04-10T05:30:19;95690.75;;;3.92;89.17
59329;BME280;45100;46.926;7.452;2023-04-10T05:32:50;95692.05;;;3.97;88.39
59329;BME280;45100;46.926;7.452;2023-04-10T05:35:21;95684.09;;;4.01;88.22
59329;BME280;45100;46.926;7.452;2023-04-10T05:37:51;95679.64;;;4.06;88.01
59329;BME280;45100;46.926;7.452;2023-04-10T05:40:22;95682.66;;;4.12;87.57
59329;BME280;45100;46.926;7.452;2023-04-10T05:42:53;95684.11;;;4.17;87.16
59329;BME280;45100;46.926;7.452;2023-04-10T05:45:24;95684.41;;;4.20;86.64
59329;BME280;45100;46.926;7.452;2023-04-10T05:47:54;95686.98;;;4.23;86.47
59329;BME280;45100;46.926;7.452;2023-04-10T05:50:25;95689.38;;;4.25;86.14
59329;BME280;45100;46.926;7.452;2023-04-10T05:52:56;95693.20;;;4.29;86.32
59329;BME280;45100;46.926;7.452;2023-04-10T05:55:29;95696.05;;;4.33;85.90
59329;BME280;45100;46.926;7.452;2023-04-10T05:57:57;95694.67;;;4.36;85.78
59329;BME280;45100;46.926;7.452;2023-04-10T06:00:28;95693.20;;;4.37;85.59
59329;BME280;45100;46.926;7.452;2023-04-10T06:02:59;95697.55;;;4.39;85.47
59329;BME280;45100;46.926;7.452;2023-04-10T06:05:30;95703.38;;;4.39;85.74
59329;BME280;45100;46.926;7.452;2023-04-10T06:08:00;95708.62;;;4.43;85.73
59329;BME280;45100;46.926;7.452;2023-04-10T06:10:31;95705.69;;;4.45;85.47
59329;BME280;45100;46.926;7.452;2023-04-10T06:13:01;95702.93;;;4.46;85.38
59329;BME280;45100;46.926;7.452;2023-04-10T06:15:31;95702.12;;;4.52;85.55
59329;BME280;45100;46.926;7.452;2023-04-10T06:18:02;95704.86;;;4.57;85.44
59329;BME280;45100;46.926;7.452;2023-04-10T06:20:33;95710.05;;;4.62;85.27
59329;BME280;45100;46.926;7.452;2023-04-10T06:23:04;95710.50;;;4.66;85.01
59329;BME280;45100;46.926;7.452;2023-04-10T06:25:34;95708.32;;;4.69;84.83
59329;BME280;45100;46.926;7.452;2023-04-10T06:28:04;95709.16;;;4.70;84.56
59329;BME280;45100;46.926;7.452;2023-04-10T06:30:36;95712.39;;;4.72;84.59
59329;BME280;45100;46.926;7.452;2023-04-10T06:33:06;95716.91;;;4.76;84.46
59329;BME280;45100;46.926;7.452;2023-04-10T06:35:38;95718.61;;;4.80;84.29
59329;BME280;45100;46.926;7.452;2023-04-10T06:38:08;95715.95;;;4.81;83.58
59329;BME280;45100;46.926;7.452;2023-04-10T06:40:39;95718.95;;;4.82;84.00
59329;BME280;45100;46.926;7.452;2023-04-10T06:43:09;95717.69;;;4.87;84.37
59329;BME280;45100;46.926;7.452;2023-04-10T06:45:40;95716.77;;;4.93;84.43
59329;BME280;45100;46.926;7.452;2023-04-10T06:48:11;95718.11;;;5.01;84.20
59329;BME280;45100;46.926;7.452;2023-04-10T06:50:42;95715.70;;;5.09;83.97
59329;BME280;45100;46.926;7.452;2023-04-10T06:53:13;95714.40;;;5.18;83.84
59329;BME280;45100;46.926;7.452;2023-04-10T06:55:43;95712.09;;;5.26;83.71
59329;BME280;45100;46.926;7.452;2023-04-10T06:58:14;95712.61;;;5.33;83.26
59329;BME280;45100;46.926;7.452;2023-04-10T07:00:45;95712.26;;;5.38;83.11
59329;BME280;45100;46.926;7.452;2023-04-10T07:03:16;95715.89;;;5.44;82.74
59329;BME280;45100;46.926;7.452;2023-04-10T07:05:46;95710.97;;;5.48;82.84
59329;BME280;45100;46.926;7.452;2023-04-10T07:08:17;95710.62;;;5.56;82.79
59329;BME280;45100;46.926;7.452;2023-04-10T07:10:48;95715.38;;;5.62;82.35
59329;BME280;45100;46.926;7.452;2023-04-10T07:13:19;95711.29;;;5.64;82.04
59329;BME280;45100;46.926;7.452;2023-04-10T07:15:49;95709.93;;;5.71;82.39
59329;BME280;45100;46.926;7.452;2023-04-10T07:18:20;95707.78;;;5.80;82.26
59329;BME280;45100;46.926;7.452;2023-04-10T07:20:51;95703.16;;;5.86;82.00
59329;BME280;45100;46.926;7.452;2023-04-10T07:23:22;95706.31;;;5.90;81.79
59329;BME280;45100;46.926;7.452;2023-04-10T07:25:52;95704.03;;;5.94;81.91
59329;BME280;45100;46.926;7.452;2023-04-10T07:28:22;95705.84;;;5.99;81.52
59329;BME280;45100;46.926;7.452;2023-04-10T07:30:53;95702.59;;;6.04;81.26
59329;BME280;45100;46.926;7.452;2023-04-10T07:33:23;95701.12;;;6.12;81.05
59329;BME280;45100;46.926;7.452;2023-04-10T07:35:54;95703.02;;;6.22;80.80
59329;BME280;45100;46.926;7.452;2023-04-10T07:38:25;95703.78;;;6.29;79.63
59329;BME280;45100;46.926;7.452;2023-04-10T07:40:56;95706.66;;;6.36;79.62
59329;BME280;45100;46.926;7.452;2023-04-10T07:43:26;95710.37;;;6.42;79.55
59329;BME280;45100;46.926;7.452;2023-04-10T07:45:56;95710.25;;;6.47;79.04
59329;BME280;45100;46.926;7.452;2023-04-10T07:48:27;95713.70;;;6.53;79.14
59329;BME280;45100;46.926;7.452;2023-04-10T07:50:58;95714.96;;;6.63;79.30
59329;BME280;45100;46.926;7.452;2023-04-10T07:53:29;95714.30;;;6.76;79.15
59329;BME280;45100;46.926;7.452;2023-04-10T07:55:59;95713.66;;;6.90;78.60
59329;BME280;45100;46.926;7.452;2023-04-10T07:58:32;95712.78;;;7.02;77.38
59329;BME280;45100;46.926;7.452;2023-04-10T08:01:01;95708.48;;;7.11;76.88
59329;BME280;45100;46.926;7.452;2023-04-10T08:03:36;95704.12;;;7.19;76.54
59329;BME280;45100;46.926;7.452;2023-04-10T08:06:02;95705.05;;;7.30;77.05
59329;BME280;45100;46.926;7.452;2023-04-10T08:08:32;95704.45;;;7.43;76.38
59329;BME280;45100;46.926;7.452;2023-04-10T08:11:06;95698.70;;;7.54;74.85
59329;BME280;45100;46.926;7.452;2023-04-10T08:13:33;95697.09;;;7.63;74.60
59329;BME280;45100;46.926;7.452;2023-04-10T08:16:04;95698.30;;;7.74;74.85
59329;BME280;45100;46.926;7.452;2023-04-10T08:18:35;95698.11;;;7.89;74.48
59329;BME280;45100;46.926;7.452;2023-04-10T08:21:06;95698.11;;;8.04;73.50
59329;BME280;45100;46.926;7.452;2023-04-10T08:23:36;95699.23;;;8.19;73.51
59329;BME280;45100;46.926;7.452;2023-04-10T08:26:06;95695.12;;;8.35;73.04
59329;BME280;45100;46.926;7.452;2023-04-10T08:28:37;95696.20;;;8.51;72.05
59329;BME280;45100;46.926;7.452;2023-04-10T08:31:08;95696.12;;;8.65;71.16
59329;BME280;45100;46.926;7.452;2023-04-10T08:33:39;95701.84;;;8.79;70.56
59329;BME280;45100;46.926;7.452;2023-04-10T08:36:10;95700.62;;;8.91;69.89
59329;BME280;45100;46.926;7.452;2023-04-10T08:38:40;95698.02;;;9.02;69.41
59329;BME280;45100;46.926;7.452;2023-04-10T08:41:11;95691.20;;;9.14;68.99
59329;BME280;45100;46.926;7.452;2023-04-10T08:43:40;95686.67;;;9.25;68.26
59329;BME280;45100;46.926;7.452;2023-04-10T08:46:14;95687.22;;;9.36;67.86
59329;BME280;45100;46.926;7.452;2023-04-10T08:48:52;95683.61;;;9.46;67.87
59329;BME280;45100;46.926;7.452;2023-04-10T08:53:44;95675.05;;;9.76;66.86
59329;BME280;45100;46.926;7.452;2023-04-10T08:56:17;95673.32;;;9.94;66.64
59329;BME280;45100;46.926;7.452;2023-04-10T09:01:20;95669.02;;;10.35;64.76
59329;BME280;45100;46.926;7.452;2023-04-10T09:03:48;95666.92;;;10.50;63.62
59329;BME280;45100;46.926;7.452;2023-04-10T09:06:19;95666.69;;;10.59;62.89
59329;BME280;45100;46.926;7.452;2023-04-10T09:08:50;95663.75;;;10.66;62.63
59329;BME280;45100;46.926;7.452;2023-04-10T09:11:21;95669.68;;;10.76;62.58
59329;BME280;45100;46.926;7.452;2023-04-10T09:13:52;95668.69;;;10.84;61.72
59329;BME280;45100;46.926;7.452;2023-04-10T09:16:27;95671.06;;;10.91;62.06
59329;BME280;45100;46.926;7.452;2023-04-10T09:18:55;95671.30;;;10.98;61.14
59329;BME280;45100;46.926;7.452;2023-04-10T09:21:24;95669.85;;;11.04;61.24
59329;BME280;45100;46.926;7.452;2023-04-10T09:24:01;95667.67;;;11.14;61.47
59329;BME280;45100;46.926;7.452;2023-04-10T09:26:29;95666.75;;;11.24;60.42
59329;BME280;45100;46.926;7.452;2023-04-10T09:29:01;95667.65;;;11.34;59.38
59329;BME280;45100;46.926;7.452;2023-04-10T09:31:29;95661.70;;;11.40;59.23
59329;BME280;45100;46.926;7.452;2023-04-10T09:34:08;95662.62;;;11.47;59.10
59329;BME280;45100;46.926;7.452;2023-04-10T09:39:01;95661.55;;;11.61;59.01
59329;BME280;45100;46.926;7.452;2023-04-10T09:41:31;95653.71;;;11.66;58.38
59329;BME280;45100;46.926;7.452;2023-04-10T09:44:09;95654.80;;;11.72;58.06
59329;BME280;45100;46.926;7.452;2023-04-10T09:49:06;95650.35;;;11.97;57.54
59329;BME280;45100;46.926;7.452;2023-04-10T09:56:40;95648.64;;;12.24;55.88
59329;BME280;45100;46.926;7.452;2023-04-10T09:59:12;95650.45;;;12.31;55.51
59329;BME280;45100;46.926;7.452;2023-04-10T10:04:17;95638.70;;;12.54;54.83
59329;BME280;45100;46.926;7.452;2023-04-10T10:06:47;95638.88;;;12.56;53.64
59329;BME280;45100;46.926;7.452;2023-04-10T10:09:17;95637.97;;;12.53;53.69
59329;BME280;45100;46.926;7.452;2023-04-10T10:11:49;95628.34;;;12.49;54.61
59329;BME280;45100;46.926;7.452;2023-04-10T10:14:21;95625.31;;;12.54;53.95
59329;BME280;45100;46.926;7.452;2023-04-10T10:16:51;95622.02;;;12.63;53.52
59329;BME280;45100;46.926;7.452;2023-04-10T10:19:29;95610.21;;;12.68;53.40
59329;BME280;45100;46.926;7.452;2023-04-10T10:21:50;95611.41;;;12.80;53.44
59329;BME280;45100;46.926;7.452;2023-04-10T10:24:22;95604.02;;;12.89;53.19
59329;BME280;45100;46.926;7.452;2023-04-10T10:26:50;95598.02;;;13.02;53.39
59329;BME280;45100;46.926;7.452;2023-04-10T10:29:22;95596.48;;;13.22;54.03
59329;BME280;45100;46.926;7.452;2023-04-10T10:31:51;95598.95;;;13.48;51.91
59329;BME280;45100;46.926;7.452;2023-04-10T10:34:22;95591.05;;;13.66;50.97
59329;BME280;45100;46.926;7.452;2023-04-10T10:42:08;95591.30;;;13.77;50.11
59329;BME280;45100;46.926;7.452;2023-04-10T10:47:16;95595.03;;;13.77;50.60
59329;BME280;45100;46.926;7.452;2023-04-10T10:54:47;95595.82;;;13.95;49.92
59329;BME280;45100;46.926;7.452;2023-04-10T10:57:45;95591.84;;;14.08;49.23
59329;BME280;45100;46.926;7.452;2023-04-10T10:59:53;95595.30;;;14.13;49.05
59329;BME280;45100;46.926;7.452;2023-04-10T11:02:18;95591.93;;;14.10;49.07
59329;BME280;45100;46.926;7.452;2023-04-10T11:04:49;95582.69;;;14.10;49.13
59329;BME280;45100;46.926;7.452;2023-04-10T11:07:20;95583.54;;;14.16;49.00
59329;BME280;45100;46.926;7.452;2023-04-10T11:12:24;95580.63;;;14.36;48.94
59329;BME280;45100;46.926;7.452;2023-04-10T11:15:01;95580.45;;;14.47;48.06
59329;BME280;45100;46.926;7.452;2023-04-10T11:17:45;95572.16;;;14.51;47.73
59329;BME280;45100;46.926;7.452;2023-04-10T11:19:59;95570.43;;;14.58;48.47
59329;BME280;45100;46.926;7.452;2023-04-10T11:22:27;95569.85;;;14.74;46.91
59329;BME280;45100;46.926;7.452;2023-04-10T11:27:43;95569.44;;;14.88;46.46
59329;BME280;45100;46.926;7.452;2023-04-10T11:29:58;95570.70;;;14.87;46.56
59329;BME280;45100;46.926;7.452;2023-04-10T11:32:40;95568.94;;;14.88;46.54
59329;BME280;45100;46.926;7.452;2023-04-10T11:34:59;95569.42;;;14.86;46.63
59329;BME280;45100;46.926;7.452;2023-04-10T11:37:30;95570.22;;;14.87;47.48
59329;BME280;45100;46.926;7.452;2023-04-10T11:40:02;95575.91;;;14.90;47.75
59329;BME280;45100;46.926;7.452;2023-04-10T11:42:31;95572.95;;;14.92;45.89
59329;BME280;45100;46.926;7.452;2023-04-10T11:45:21;95571.44;;;14.86;46.48
59329;BME280;45100;46.926;7.452;2023-04-10T11:50:07;95573.75;;;14.87;46.79
59329;BME280;45100;46.926;7.452;2023-04-10T11:52:35;95569.16;;;14.96;46.55
59329;BME280;45100;46.926;7.452;2023-04-10T11:55:07;95569.81;;;15.07;47.35
59329;BME280;45100;46.926;7.452;2023-04-10T11:57:36;95574.61;;;15.17;46.52
59329;BME280;45100;46.926;7.452;2023-04-10T12:00:09;95563.03;;;15.16;45.98
59329;BME280;45100;46.926;7.452;2023-04-10T12:02:52;95555.77;;;15.15;46.94
59329;BME280;45100;46.926;7.452;2023-04-10T12:05:08;95557.02;;;15.20;46.47
59329;BME280;45100;46.926;7.452;2023-04-10T12:07:39;95559.85;;;15.20;45.74
59329;BME280;45100;46.926;7.452;2023-04-10T12:10:09;95555.11;;;15.20;46.03
59329;BME280;45100;46.926;7.452;2023-04-10T12:12:41;95550.61;;;15.20;46.10
59329;BME280;45100;46.926;7.452;2023-04-10T12:15:26;95556.61;;;15.21;46.54
59329;BME280;45100;46.926;7.452;2023-04-10T12:17:42;95554.30;;;15.20;46.91
59329;BME280;45100;46.926;7.452;2023-04-10T12:22:46;95546.89;;;15.21;47.00
59329;BME280;45100;46.926;7.452;2023-04-10T12:25:19;95541.72;;;15.32;46.58
59329;BME280;45100;46.926;7.452;2023-04-10T12:30:18;95530.41;;;15.43;46.47
59329;BME280;45100;46.926;7.452;2023-04-10T12:32:50;95525.70;;;15.53;46.33
59329;BME280;45100;46.926;7.452;2023-04-10T12:35:20;95525.15;;;15.63;45.04
59329;BME280;45100;46.926;7.452;2023-04-10T12:37:51;95527.08;;;15.68;44.38
59329;BME280;45100;46.926;7.452;2023-04-10T12:40:21;95526.38;;;15.68;44.51
59329;BME280;45100;46.926;7.452;2023-04-10T12:42:52;95524.05;;;15.74;44.51
59329;BME280;45100;46.926;7.452;2023-04-10T12:45:40;95514.09;;;15.75;43.28
59329;BME280;45100;46.926;7.452;2023-04-10T12:47:53;95515.31;;;15.74;43.40
59329;BME280;45100;46.926;7.452;2023-04-10T12:50:24;95520.66;;;15.77;43.47
59329;BME280;45100;46.926;7.452;2023-04-10T12:53:05;95512.22;;;15.73;44.31
59329;BME280;45100;46.926;7.452;2023-04-10T12:55:26;95510.59;;;15.69;44.71
59329;BME280;45100;46.926;7.452;2023-04-10T12:57:57;95511.48;;;15.70;44.82
59329;BME280;45100;46.926;7.452;2023-04-10T13:06:07;95511.34;;;15.79;45.80
59329;BME280;45100;46.926;7.452;2023-04-10T13:11:11;95512.03;;;15.91;45.71
59329;BME280;45100;46.926;7.452;2023-04-10T13:13:41;95505.12;;;15.96;46.21
59329;BME280;45100;46.926;7.452;2023-04-10T13:16:13;95501.09;;;16.06;45.88
59329;BME280;45100;46.926;7.452;2023-04-10T13:18:42;95503.45;;;16.17;45.91
59329;BME280;45100;46.926;7.452;2023-04-10T13:21:22;95501.15;;;16.26;45.57
59329;BME280;45100;46.926;7.452;2023-04-10T13:23:44;95500.75;;;16.36;45.09
59329;BME280;45100;46.926;7.452;2023-04-10T13:26:15;95497.00;;;16.44;45.62
59329;BME280;45100;46.926;7.452;2023-04-10T13:28:45;95492.42;;;16.49;45.43
59329;BME280;45100;46.926;7.452;2023-04-10T13:47:04;95463.20;;;16.32;45.63
59329;BME280;45100;46.926;7.452;2023-04-10T13:49:35;95459.95;;;16.41;45.85
59329;BME280;45100;46.926;7.452;2023-04-10T13:52:05;95455.08;;;16.48;45.55
59329;BME280;45100;46.926;7.452;2023-04-10T13:54:36;95457.34;;;16.47;45.02
59329;BME280;45100;46.926;7.452;2023-04-10T13:57:07;95457.48;;;16.43;45.16
59329;BME280;45100;46.926;7.452;2023-04-10T13:59:38;95451.02;;;16.43;44.79
59329;BME280;45100;46.926;7.452;2023-04-10T14:02:09;95455.30;;;16.42;44.78
59329;BME280;45100;46.926;7.452;2023-04-10T14:04:39;95452.06;;;16.38;44.71
59329;BME280;45100;46.926;7.452;2023-04-10T14:09:42;95455.32;;;16.31;44.88
59329;BME280;45100;46.926;7.452;2023-04-10T14:14:45;95449.48;;;16.42;45.19
59329;BME280;45100;46.926;7.452;2023-04-10T14:17:15;95445.14;;;16.51;45.20
59329;BME280;45100;46.926;7.452;2023-04-10T14:19:50;95446.28;;;16.61;44.79
59329;BME280;45100;46.926;7.452;2023-04-10T14:22:17;95445.91;;;16.69;44.15
59329;BME280;45100;46.926;7.452;2023-04-10T14:24:46;95448.36;;;16.71;44.62
59329;BME280;45100;46.926;7.452;2023-04-10T14:27:17;95445.05;;;16.70;43.57
59329;BME280;45100;46.926;7.452;2023-04-10T14:29:48;95444.45;;;16.71;43.63
59329;BME280;45100;46.926;7.452;2023-04-10T14:32:19;95444.61;;;16.71;44.07
59329;BME280;45100;46.926;7.452;2023-04-10T14:34:50;95449.56;;;16.76;45.38
59329;BME280;45100;46.926;7.452;2023-04-10T14:39:55;95453.18;;;16.92;45.10
59329;BME280;45100;46.926;7.452;2023-04-10T14:47:31;95453.56;;;16.79;45.65
59329;BME280;45100;46.926;7.452;2023-04-10T14:52:33;95449.62;;;16.62;47.32
59329;BME280;45100;46.926;7.452;2023-04-10T14:55:04;95444.28;;;16.53;48.03